Time;durP1;ratioP1;P1;durP2;ratioP2;P2;SDS_P1;SDS_P2;PMS_P1;PMS_P2;Temp;Humidity;BMP_temperature;BMP_pressure;BME280_temperature;BME280_humidity;BME280_pressure;Samples;Min_cycle;Max_cycle;Signal;HPM_P1;HPM_P2
2023/08/01 00:03:58;;;;;;;4.30;2.80;;;;;;;17.12;69.04;98586.54;437376;1253;139707;-65
2023/08/01 00:14:04;;;;;;;7.70;3.50;;;;;;;17.20;69.23;98579.02;436161;1251;139622;-65
2023/08/01 00:24:09;;;;;;;3.20;2.70;;;;;;;17.26;69.00;98571.39;436003;1253;139652;-66
2023/08/01 00:34:15;;;;;;;2.50;2.30;;;;;;;17.27;68.79;98567.95;435988;1253;139003;-66
2023/08/01 00:44:21;;;;;;;5.30;2.50;;;;;;;17.31;68.67;98561.14;435987;1256;139086;-65
2023/08/01 00:54:27;;;;;;;5.70;2.70;;;;;;;17.40;68.51;98543.79;436019;1254;139220;-65
2023/08/01 01:04:33;;;;;;;3.00;1.90;;;;;;;17.48;68.28;98527.40;436029;1254;141073;-65
2023/08/01 01:14:39;;;;;;;4.10;2.40;;;;;;;17.54;67.83;98510.71;436036;1253;140060;-66
2023/08/01 01:24:46;;;;;;;5.80;2.20;;;;;;;17.58;67.52;98495.94;437419;1253;139107;-67
2023/08/01 01:34:52;;;;;;;4.20;2.40;;;;;;;17.60;67.40;98480.48;436025;1253;139705;-65
2023/08/01 01:44:58;;;;;;;4.50;2.40;;;;;;;17.63;67.37;98458.06;435558;1254;139062;-66
2023/08/01 01:55:04;;;;;;;3.20;2.30;;;;;;;17.66;67.21;98437.95;436213;1253;140561;-65
2023/08/01 02:05:10;;;;;;;2.90;2.10;;;;;;;17.68;67.23;98422.75;436303;1251;139882;-65
2023/08/01 02:15:16;;;;;;;4.70;2.40;;;;;;;17.68;66.90;98403.23;436099;1254;140529;-65
2023/08/01 02:25:22;;;;;;;3.70;2.70;;;;;;;17.66;66.84;98388.58;435959;1254;139978;-65
2023/08/01 02:35:28;;;;;;;3.10;2.80;;;;;;;17.62;66.94;98383.14;436065;1253;140369;-66
2023/08/01 02:45:34;;;;;;;3.50;3.00;;;;;;;17.56;66.97;98368.63;436158;1251;139067;-65
2023/08/01 02:55:40;;;;;;;6.90;2.50;;;;;;;17.50;67.08;98357.62;436180;1253;139247;-65
2023/08/01 03:05:46;;;;;;;3.50;3.00;;;;;;;17.45;67.00;98340.14;436477;1252;139619;-65
2023/08/01 03:15:52;;;;;;;4.70;3.30;;;;;;;17.38;67.32;98332.88;436412;1254;138980;-65
2023/08/01 03:25:58;;;;;;;4.00;2.50;;;;;;;17.34;67.46;98324.80;436327;1253;139658;-66
2023/08/01 03:36:04;;;;;;;3.70;2.50;;;;;;;17.44;67.33;98314.43;436398;1251;138947;-67
2023/08/01 03:46:10;;;;;;;4.00;2.90;;;;;;;17.50;67.27;98312.10;436150;1251;139250;-66
2023/08/01 03:56:16;;;;;;;4.40;2.70;;;;;;;17.50;67.27;98301.68;436016;1251;140622;-66
2023/08/01 04:06:22;;;;;;;8.40;3.10;;;;;;;17.52;67.17;98297.55;437292;1251;138963;-65
2023/08/01 04:16:28;;;;;;;3.40;1.70;;;;;;;17.59;67.02;98289.19;436112;1251;140612;-66
2023/08/01 04:26:34;;;;;;;5.60;2.50;;;;;;;17.76;66.45;98287.82;435972;1251;139517;-65
2023/08/01 04:36:39;;;;;;;4.70;2.40;;;;;;;18.03;66.21;98276.45;436022;1251;139748;-65
2023/08/01 04:46:45;;;;;;;3.70;2.10;;;;;;;18.20;65.76;98268.83;435958;1251;140659;-67
2023/08/01 04:56:56;;;;;;;5.20;2.50;;;;;;;18.46;65.33;98262.23;435966;1251;140176;-66
2023/08/01 05:07:02;;;;;;;4.30;2.10;;;;;;;19.25;64.40;98246.84;435937;1253;140634;-66
2023/08/01 05:17:08;;;;;;;5.70;2.40;;;;;;;21.76;61.55;98244.00;436279;1250;140436;-67
2023/08/01 05:27:15;;;;;;;6.00;2.30;;;;;;;22.52;58.36;98243.17;435956;1253;138815;-66
2023/08/01 05:37:20;;;;;;;4.60;2.70;;;;;;;22.49;57.24;98233.59;436016;1250;139496;-67
2023/08/01 05:47:26;;;;;;;3.50;2.00;;;;;;;21.79;57.44;98225.36;435884;1251;138693;-67
2023/08/01 05:57:32;;;;;;;3.80;1.70;;;;;;;24.17;55.90;98225.27;435627;1253;140482;-67
2023/08/01 06:07:38;;;;;;;3.10;1.80;;;;;;;26.60;52.14;98214.44;436064;1251;140030;-67
2023/08/01 06:17:44;;;;;;;4.00;1.90;;;;;;;28.70;48.44;98215.09;436340;1253;138499;-67
2023/08/01 06:27:50;;;;;;;2.40;1.70;;;;;;;29.23;46.15;98214.18;436139;1251;141300;-67
2023/08/01 06:37:58;;;;;;;2.30;1.80;;;;;;;28.42;45.56;98207.84;436012;1251;140083;-67
2023/08/01 06:48:04;;;;;;;3.50;1.70;;;;;;;30.51;44.24;98208.35;438126;1249;138610;-71
2023/08/01 06:58:10;;;;;;;5.30;2.00;;;;;;;30.46;42.07;98197.04;438274;1250;140687;-67
2023/08/01 07:08:15;;;;;;;3.00;1.80;;;;;;;28.66;42.87;98186.14;438411;1250;139728;-72
2023/08/01 07:18:21;;;;;;;5.70;2.00;;;;;;;27.69;43.77;98176.36;439763;1250;140688;-72
2023/08/01 07:28:27;;;;;;;3.10;1.70;;;;;;;26.27;45.23;98178.97;436488;1253;140080;-66
2023/08/01 07:38:34;;;;;;;4.00;1.80;;;;;;;25.20;46.41;98179.36;437090;1253;180329;-73
2023/08/01 07:48:40;;;;;;;3.50;1.90;;;;;;;24.08;48.04;98184.45;440157;1253;140231;-68
2023/08/01 07:58:46;;;;;;;6.80;2.30;;;;;;;23.30;49.72;98192.83;435875;1253;138945;-67
2023/08/01 08:08:52;;;;;;;5.40;2.20;;;;;;;22.88;51.00;98187.41;435385;1253;139500;-64
2023/08/01 08:18:58;;;;;;;2.30;1.80;;;;;;;22.61;52.35;98165.47;435735;1250;138896;-67
2023/08/01 08:29:05;;;;;;;4.20;1.90;;;;;;;22.43;53.98;98155.84;436029;1250;138750;-67
2023/08/01 08:39:11;;;;;;;3.10;2.10;;;;;;;22.15;55.58;98157.13;436154;1253;139752;-66
2023/08/01 08:49:19;;;;;;;2.60;1.90;;;;;;;22.30;57.11;98158.70;436232;1251;139583;-67
2023/08/01 08:59:27;;;;;;;3.20;1.90;;;;;;;22.26;57.55;98158.09;436106;1250;138360;-66
2023/08/01 09:09:36;;;;;;;3.90;2.40;;;;;;;21.92;58.59;98157.21;436003;1251;139595;-66
2023/08/01 09:19:42;;;;;;;4.80;2.60;;;;;;;21.64;59.92;98152.37;436088;1253;139750;-65
2023/08/01 09:29:48;;;;;;;4.50;2.90;;;;;;;21.56;60.92;98143.48;436043;1253;139969;-66
2023/08/01 09:39:59;;;;;;;3.80;2.90;;;;;;;21.75;61.60;98130.42;436529;1253;139745;-68
2023/08/01 09:50:06;;;;;;;3.50;2.30;;;;;;;21.71;61.69;98114.78;436351;1251;140026;-69
2023/08/01 10:00:13;;;;;;;2.60;2.00;;;;;;;21.87;61.94;98099.19;436250;1250;140525;-67
2023/08/01 10:10:21;;;;;;;3.10;2.50;;;;;;;22.99;61.67;98081.54;436551;1253;139137;-63
2023/08/01 10:20:27;;;;;;;5.30;3.70;;;;;;;23.68;59.56;98062.46;436617;1253;141162;-70
2023/08/01 10:30:33;;;;;;;3.00;2.60;;;;;;;24.03;58.66;98047.42;437782;1253;138877;-67
2023/08/01 10:40:41;;;;;;;2.70;1.90;;;;;;;24.76;56.89;98038.11;436622;1251;138373;-66
2023/08/01 10:50:57;;;;;;;4.70;2.20;;;;;;;25.08;55.49;98024.04;435930;1253;139029;-65
2023/08/01 11:01:03;;;;;;;6.30;2.20;;;;;;;24.98;54.61;98016.11;436031;1250;138410;-63
2023/08/01 11:11:14;;;;;;;3.00;2.10;;;;;;;24.60;54.54;98006.50;437847;1253;138314;-75
2023/08/01 11:21:29;;;;;;;4.50;2.80;;;;;;;24.78;53.82;97998.27;439763;1251;140044;-74
2023/08/01 11:31:35;;;;;;;9.60;2.50;;;;;;;24.59;53.05;97993.77;437107;1250;138700;-69
2023/08/01 11:41:41;;;;;;;6.00;2.80;;;;;;;24.50;53.02;97990.24;436439;1251;139476;-70
2023/08/01 11:51:47;;;;;;;4.80;2.00;;;;;;;24.34;53.04;97991.08;437770;1250;138956;-72
2023/08/01 12:01:53;;;;;;;4.70;2.50;;;;;;;24.70;52.87;97985.25;439216;1251;139508;-69
2023/08/01 12:12:04;;;;;;;2.40;1.70;;;;;;;25.09;52.47;97973.84;436735;1250;138879;-67
2023/08/01 12:22:10;;;;;;;3.30;2.00;;;;;;;25.09;52.08;97958.06;436793;1250;138875;-67
2023/08/01 12:32:18;;;;;;;4.50;1.90;;;;;;;24.80;52.15;97960.66;436079;1250;139473;-67
2023/08/01 12:42:24;;;;;;;9.80;2.90;;;;;;;24.78;52.41;97956.41;435965;1250;140267;-63
2023/08/01 12:52:30;;;;;;;3.90;2.30;;;;;;;24.57;52.56;97956.64;435914;1253;138898;-64
2023/08/01 13:02:36;;;;;;;2.20;1.90;;;;;;;23.76;53.81;97956.36;436059;1253;139372;-71
2023/08/01 13:12:41;;;;;;;3.70;2.80;;;;;;;23.54;54.72;97953.89;440048;1250;139575;-74
2023/08/01 13:22:50;;;;;;;3.20;2.90;;;;;;;23.17;55.56;97953.49;439892;1250;139805;-71
2023/08/01 13:32:56;;;;;;;4.20;2.40;;;;;;;23.02;56.61;97943.51;439658;1249;138897;-69
2023/08/01 13:43:01;;;;;;;2.30;2.10;;;;;;;23.08;57.41;97929.86;436971;1250;140378;-75
2023/08/01 13:53:10;;;;;;;3.70;3.30;;;;;;;23.27;57.19;97921.67;439740;1253;139546;-68
2023/08/01 14:03:16;;;;;;;3.60;2.80;;;;;;;23.03;57.34;97914.55;439818;1253;138970;-73
2023/08/01 14:13:22;;;;;;;3.50;2.40;;;;;;;22.64;58.38;97906.53;439864;1250;140597;-72
2023/08/01 14:23:28;;;;;;;2.60;2.40;;;;;;;22.48;59.21;97886.06;439407;1250;139297;-72
2023/08/01 14:33:36;;;;;;;4.00;2.10;;;;;;;22.18;59.84;97876.65;439524;1253;138700;-73
2023/08/01 14:43:43;;;;;;;6.80;2.50;;;;;;;21.82;60.44;97876.26;439536;1250;139519;-73
2023/08/01 14:53:48;;;;;;;3.70;2.00;;;;;;;21.39;61.30;97895.27;439402;1250;138705;-72
2023/08/01 15:03:54;;;;;;;11.10;2.90;;;;;;;21.64;61.89;97886.20;439284;1250;139370;-69
2023/08/01 15:14:01;;;;;;;5.60;2.80;;;;;;;22.02;61.44;97894.96;438431;1250;139735;-68
2023/08/01 15:24:09;;;;;;;3.00;1.90;;;;;;;22.16;61.27;97903.34;436183;1250;139710;-68
2023/08/01 15:34:15;;;;;;;2.60;2.10;;;;;;;22.69;60.61;97912.44;437372;1251;139388;-75
2023/08/01 15:44:21;;;;;;;3.10;1.80;;;;;;;22.95;59.80;97907.74;439365;1251;141457;-71
2023/08/01 15:54:28;;;;;;;5.50;2.10;;;;;;;22.61;59.92;97902.77;439620;1253;139323;-71
2023/08/01 16:04:34;;;;;;;3.10;2.90;;;;;;;22.35;60.08;97908.40;436562;1253;139738;-73
2023/08/01 16:14:40;;;;;;;1.90;1.80;;;;;;;22.03;60.75;97912.42;437233;1250;138988;-80
2023/08/01 16:24:46;;;;;;;3.10;1.70;;;;;;;21.71;61.24;97917.02;439698;1251;138978;-79
2023/08/01 16:34:52;;;;;;;4.30;3.00;;;;;;;21.39;61.76;97928.38;439667;1251;139621;-82
2023/08/01 16:44:58;;;;;;;2.20;2.00;;;;;;;21.20;62.28;97927.40;440536;1249;139259;-75
2023/08/01 16:55:04;;;;;;;3.60;2.00;;;;;;;21.11;62.81;97937.44;439490;1253;140775;-74
2023/08/01 17:05:12;;;;;;;9.30;2.50;;;;;;;20.99;63.23;97947.91;439688;1253;139047;-76
2023/08/01 17:15:19;;;;;;;2.50;2.00;;;;;;;20.87;63.85;97964.54;440037;1250;140463;-77
2023/08/01 17:25:25;;;;;;;4.40;1.90;;;;;;;20.61;64.95;97983.36;439639;1253;139173;-75
2023/08/01 17:35:31;;;;;;;2.80;2.50;;;;;;;20.29;66.81;97981.08;439683;1253;138956;-79
2023/08/01 17:45:37;;;;;;;2.40;1.30;;;;;;;19.93;68.08;98024.66;439648;1253;139087;-80
2023/08/01 17:55:43;;;;;;;0.90;0.70;;;;;;;19.12;68.83;98066.42;439841;1250;139360;-78
2023/08/01 18:05:49;;;;;;;1.20;0.50;;;;;;;18.28;70.80;98052.26;439795;1253;139201;-79
2023/08/01 18:15:55;;;;;;;1.10;0.60;;;;;;;17.90;72.95;98047.73;440079;1253;140195;-80
2023/08/01 18:26:00;;;;;;;2.80;0.70;;;;;;;17.71;74.17;98041.63;439957;1251;139124;-80
2023/08/01 18:36:11;;;;;;;2.20;1.30;;;;;;;17.54;75.38;98038.75;439977;1250;139554;-79
2023/08/01 18:46:18;;;;;;;3.30;1.50;;;;;;;17.37;76.26;98030.26;439595;1253;139052;-79
2023/08/01 18:56:23;;;;;;;;;;;;;;;17.21;77.39;98045.23;440084;1250;140256;-80
2023/08/01 19:06:29;;;;;;;2.20;1.10;;;;;;;17.03;78.89;98062.44;439477;1249;127520;-79
2023/08/01 19:16:35;;;;;;;1.60;1.30;;;;;;;16.95;79.82;98066.71;440787;1253;139159;-78
2023/08/01 19:26:41;;;;;;;1.50;1.20;;;;;;;16.86;80.71;98066.48;446653;1253;139039;-78
2023/08/01 19:36:49;;;;;;;2.30;1.50;;;;;;;16.80;81.57;98070.16;439450;1253;389243;-71
2023/08/01 19:46:55;;;;;;;4.20;2.00;;;;;;;16.77;82.59;98081.15;439211;1253;139423;-70
2023/08/01 19:57:01;;;;;;;4.00;2.50;;;;;;;16.75;83.68;98092.02;439290;1253;140586;-70
2023/08/01 20:07:07;;;;;;;4.70;3.40;;;;;;;16.81;84.50;98094.45;439381;1253;139679;-76
2023/08/01 20:17:15;;;;;;;4.80;3.50;;;;;;;16.84;85.03;98087.79;440002;1250;139233;-78
2023/08/01 20:27:21;;;;;;;7.10;3.00;;;;;;;16.84;85.72;98089.88;439569;1253;139082;-76
2023/08/01 20:37:26;;;;;;;7.70;5.60;;;;;;;16.84;86.35;98092.73;439377;1253;139117;-76
2023/08/01 20:47:32;;;;;;;5.20;4.50;;;;;;;16.78;86.81;98100.25;439763;1253;139930;-75
2023/08/01 20:57:38;;;;;;;5.60;4.40;;;;;;;16.62;87.49;98103.96;439622;1253;139083;-76
2023/08/01 21:07:44;;;;;;;5.60;4.90;;;;;;;16.61;88.27;98113.99;439510;1251;139355;-75
2023/08/01 21:17:50;;;;;;;3.30;3.00;;;;;;;16.63;89.02;98118.77;436471;1254;140502;-71
2023/08/01 21:27:56;;;;;;;5.00;4.10;;;;;;;16.59;89.35;98117.55;437031;1253;139023;-75
2023/08/01 21:38:02;;;;;;;2.80;2.50;;;;;;;16.49;89.98;98100.13;436971;1251;142418;-71
2023/08/01 21:48:08;;;;;;;3.90;3.60;;;;;;;16.39;90.37;98121.02;436871;1251;140112;-73
2023/08/01 21:58:15;;;;;;;6.40;3.30;;;;;;;16.31;90.88;98130.59;436505;1253;140030;-74
2023/08/01 22:08:20;;;;;;;4.40;3.80;;;;;;;16.26;91.63;98142.02;436929;1253;139374;-68
2023/08/01 22:18:26;;;;;;;4.40;3.70;;;;;;;16.21;92.29;98153.17;436584;1254;140272;-67
2023/08/01 22:28:33;;;;;;;3.90;3.50;;;;;;;16.19;92.72;98156.64;436001;1251;139356;-66
2023/08/01 22:38:39;;;;;;;8.20;3.90;;;;;;;16.18;93.20;98174.60;436140;1254;140034;-68
2023/08/01 22:48:46;;;;;;;4.40;3.20;;;;;;;16.15;93.13;98169.16;436380;1253;140179;-66
2023/08/01 22:58:52;;;;;;;6.40;3.90;;;;;;;16.03;93.34;98167.55;436352;1253;139747;-66
2023/08/01 23:08:58;;;;;;;7.90;4.10;;;;;;;15.91;93.57;98165.96;436390;1253;139216;-67
2023/08/01 23:19:04;;;;;;;4.10;3.70;;;;;;;15.87;93.69;98168.94;436499;1253;140459;-67
2023/08/01 23:29:10;;;;;;;3.50;3.20;;;;;;;15.78;93.84;98178.95;436224;1251;139320;-69
2023/08/01 23:39:15;;;;;;;5.30;2.50;;;;;;;15.67;93.79;98188.29;436423;1251;140580;-67
2023/08/01 23:49:21;;;;;;;2.60;2.40;;;;;;;15.56;93.81;98197.38;436460;1254;140803;-68
2023/08/01 23:59:28;;;;;;;2.20;1.70;;;;;;;15.48;93.77;98192.55;436618;1253;139031;-68
